sensor_id;sensor_type;location;lat;lon;timestamp;P1;durP1;ratioP1;P2;durP2;ratioP2
58928;SDS011;44713;53.378;10.022;2023-07-13T00:01:26;2.85;;;1.40;;
58928;SDS011;44713;53.378;10.022;2023-07-13T00:03:53;2.00;;;1.23;;
58928;SDS011;44713;53.378;10.022;2023-07-13T00:06:19;8.50;;;1.77;;
58928;SDS011;44713;53.378;10.022;2023-07-13T00:08:45;2.65;;;1.40;;
58928;SDS011;44713;53.378;10.022;2023-07-13T00:11:11;3.45;;;1.42;;
58928;SDS011;44713;53.378;10.022;2023-07-13T00:13:36;1.90;;;1.20;;
58928;SDS011;44713;53.378;10.022;2023-07-13T00:16:04;2.22;;;0.90;;
58928;SDS011;44713;53.378;10.022;2023-07-13T00:18:30;3.38;;;1.20;;
58928;SDS011;44713;53.378;10.022;2023-07-13T00:20:55;2.75;;;1.23;;
58928;SDS011;44713;53.378;10.022;2023-07-13T00:23:38;2.70;;;1.08;;
58928;SDS011;44713;53.378;10.022;2023-07-13T00:26:06;3.05;;;1.30;;
58928;SDS011;44713;53.378;10.022;2023-07-13T00:28:32;3.05;;;1.40;;
58928;SDS011;44713;53.378;10.022;2023-07-13T00:30:59;1.45;;;1.00;;
58928;SDS011;44713;53.378;10.022;2023-07-13T00:33:24;3.33;;;1.33;;
58928;SDS011;44713;53.378;10.022;2023-07-13T00:35:50;3.53;;;1.42;;
58928;SDS011;44713;53.378;10.022;2023-07-13T00:38:16;4.93;;;1.10;;
58928;SDS011;44713;53.378;10.022;2023-07-13T00:40:41;3.03;;;0.98;;
58928;SDS011;44713;53.378;10.022;2023-07-13T00:43:12;3.45;;;1.42;;
58928;SDS011;44713;53.378;10.022;2023-07-13T00:48:10;3.95;;;1.30;;
58928;SDS011;44713;53.378;10.022;2023-07-13T00:50:38;1.65;;;1.00;;
58928;SDS011;44713;53.378;10.022;2023-07-13T00:53:04;3.00;;;1.52;;
58928;SDS011;44713;53.378;10.022;2023-07-13T00:55:29;2.65;;;1.52;;
58928;SDS011;44713;53.378;10.022;2023-07-13T00:57:55;1.92;;;1.20;;
58928;SDS011;44713;53.378;10.022;2023-07-13T01:00:21;1.80;;;1.30;;
58928;SDS011;44713;53.378;10.022;2023-07-13T01:02:48;6.50;;;1.95;;
58928;SDS011;44713;53.378;10.022;2023-07-13T01:05:14;6.47;;;2.15;;
58928;SDS011;44713;53.378;10.022;2023-07-13T01:07:43;3.28;;;2.22;;
58928;SDS011;44713;53.378;10.022;2023-07-13T01:10:10;3.70;;;1.55;;
58928;SDS011;44713;53.378;10.022;2023-07-13T01:12:37;2.85;;;1.60;;
58928;SDS011;44713;53.378;10.022;2023-07-13T01:15:02;3.20;;;1.88;;
58928;SDS011;44713;53.378;10.022;2023-07-13T01:17:29;3.75;;;1.95;;
58928;SDS011;44713;53.378;10.022;2023-07-13T01:19:56;3.10;;;1.40;;
58928;SDS011;44713;53.378;10.022;2023-07-13T01:22:22;2.42;;;2.08;;
58928;SDS011;44713;53.378;10.022;2023-07-13T01:24:52;3.10;;;2.78;;
58928;SDS011;44713;53.378;10.022;2023-07-13T01:27:22;3.40;;;2.45;;
58928;SDS011;44713;53.378;10.022;2023-07-13T01:29:53;3.45;;;2.00;;
58928;SDS011;44713;53.378;10.022;2023-07-13T01:34:54;3.13;;;2.22;;
58928;SDS011;44713;53.378;10.022;2023-07-13T01:37:20;2.85;;;2.58;;
58928;SDS011;44713;53.378;10.022;2023-07-13T01:39:45;4.40;;;3.00;;
58928;SDS011;44713;53.378;10.022;2023-07-13T01:42:11;5.38;;;2.85;;
58928;SDS011;44713;53.378;10.022;2023-07-13T01:44:37;3.92;;;2.85;;
58928;SDS011;44713;53.378;10.022;2023-07-13T01:47:02;4.28;;;3.28;;
58928;SDS011;44713;53.378;10.022;2023-07-13T01:49:28;5.10;;;3.17;;
58928;SDS011;44713;53.378;10.022;2023-07-13T01:51:53;4.40;;;2.55;;
58928;SDS011;44713;53.378;10.022;2023-07-13T01:54:19;3.40;;;3.10;;
58928;SDS011;44713;53.378;10.022;2023-07-13T01:56:44;2.15;;;1.67;;
58928;SDS011;44713;53.378;10.022;2023-07-13T01:59:10;5.85;;;3.60;;
58928;SDS011;44713;53.378;10.022;2023-07-13T02:01:35;4.78;;;2.92;;
58928;SDS011;44713;53.378;10.022;2023-07-13T02:04:00;4.97;;;3.75;;
58928;SDS011;44713;53.378;10.022;2023-07-13T02:06:27;4.72;;;3.65;;
58928;SDS011;44713;53.378;10.022;2023-07-13T02:08:53;5.28;;;4.40;;
58928;SDS011;44713;53.378;10.022;2023-07-13T02:11:18;4.38;;;3.90;;
58928;SDS011;44713;53.378;10.022;2023-07-13T02:13:44;8.75;;;4.40;;
58928;SDS011;44713;53.378;10.022;2023-07-13T02:16:09;5.75;;;4.18;;
58928;SDS011;44713;53.378;10.022;2023-07-13T02:18:34;3.42;;;2.45;;
58928;SDS011;44713;53.378;10.022;2023-07-13T02:21:00;5.75;;;3.78;;
58928;SDS011;44713;53.378;10.022;2023-07-13T02:23:25;5.03;;;3.78;;
58928;SDS011;44713;53.378;10.022;2023-07-13T02:25:54;5.43;;;3.70;;
58928;SDS011;44713;53.378;10.022;2023-07-13T02:28:21;5.95;;;4.22;;
58928;SDS011;44713;53.378;10.022;2023-07-13T02:30:46;5.22;;;4.00;;
58928;SDS011;44713;53.378;10.022;2023-07-13T02:33:11;4.07;;;3.20;;
58928;SDS011;44713;53.378;10.022;2023-07-13T02:35:37;4.07;;;3.60;;
58928;SDS011;44713;53.378;10.022;2023-07-13T02:38:02;2.63;;;2.30;;
58928;SDS011;44713;53.378;10.022;2023-07-13T02:40:30;4.25;;;3.17;;
58928;SDS011;44713;53.378;10.022;2023-07-13T02:42:58;3.08;;;2.80;;
58928;SDS011;44713;53.378;10.022;2023-07-13T02:45:24;4.20;;;3.78;;
58928;SDS011;44713;53.378;10.022;2023-07-13T02:47:49;7.63;;;4.00;;
58928;SDS011;44713;53.378;10.022;2023-07-13T02:50:16;4.28;;;3.88;;
58928;SDS011;44713;53.378;10.022;2023-07-13T02:52:41;4.75;;;3.60;;
58928;SDS011;44713;53.378;10.022;2023-07-13T02:55:07;6.93;;;4.78;;
58928;SDS011;44713;53.378;10.022;2023-07-13T02:57:33;3.25;;;2.30;;
58928;SDS011;44713;53.378;10.022;2023-07-13T02:59:59;3.92;;;3.60;;
58928;SDS011;44713;53.378;10.022;2023-07-13T03:02:25;5.53;;;3.95;;
58928;SDS011;44713;53.378;10.022;2023-07-13T03:04:53;4.82;;;4.22;;
58928;SDS011;44713;53.378;10.022;2023-07-13T03:07:20;7.70;;;4.05;;
58928;SDS011;44713;53.378;10.022;2023-07-13T03:09:48;5.13;;;4.00;;
58928;SDS011;44713;53.378;10.022;2023-07-13T03:12:13;6.60;;;4.03;;
58928;SDS011;44713;53.378;10.022;2023-07-13T03:14:39;4.68;;;3.72;;
58928;SDS011;44713;53.378;10.022;2023-07-13T03:17:05;6.05;;;3.92;;
58928;SDS011;44713;53.378;10.022;2023-07-13T03:19:33;6.57;;;3.72;;
58928;SDS011;44713;53.378;10.022;2023-07-13T03:22:00;4.30;;;3.85;;
58928;SDS011;44713;53.378;10.022;2023-07-13T03:24:26;5.53;;;3.83;;
58928;SDS011;44713;53.378;10.022;2023-07-13T03:26:51;6.65;;;4.18;;
58928;SDS011;44713;53.378;10.022;2023-07-13T03:29:17;6.63;;;4.18;;
58928;SDS011;44713;53.378;10.022;2023-07-13T03:31:43;8.00;;;4.20;;
58928;SDS011;44713;53.378;10.022;2023-07-13T03:34:09;6.65;;;4.53;;
58928;SDS011;44713;53.378;10.022;2023-07-13T03:36:35;5.63;;;3.42;;
58928;SDS011;44713;53.378;10.022;2023-07-13T03:39:04;6.72;;;4.55;;
58928;SDS011;44713;53.378;10.022;2023-07-13T03:41:51;7.57;;;4.65;;
58928;SDS011;44713;53.378;10.022;2023-07-13T03:44:17;7.07;;;4.70;;
58928;SDS011;44713;53.378;10.022;2023-07-13T03:46:45;6.22;;;3.70;;
58928;SDS011;44713;53.378;10.022;2023-07-13T03:49:10;4.65;;;4.25;;
58928;SDS011;44713;53.378;10.022;2023-07-13T03:51:37;6.60;;;4.75;;
58928;SDS011;44713;53.378;10.022;2023-07-13T03:54:03;5.88;;;3.85;;
58928;SDS011;44713;53.378;10.022;2023-07-13T03:56:29;8.30;;;4.80;;
58928;SDS011;44713;53.378;10.022;2023-07-13T03:58:56;7.40;;;4.78;;
58928;SDS011;44713;53.378;10.022;2023-07-13T04:01:26;6.57;;;4.40;;
58928;SDS011;44713;53.378;10.022;2023-07-13T04:03:52;6.75;;;4.88;;
58928;SDS011;44713;53.378;10.022;2023-07-13T04:06:22;8.43;;;5.03;;
58928;SDS011;44713;53.378;10.022;2023-07-13T04:08:52;5.90;;;4.75;;
58928;SDS011;44713;53.378;10.022;2023-07-13T04:11:19;9.82;;;4.13;;
58928;SDS011;44713;53.378;10.022;2023-07-13T04:13:46;5.70;;;4.55;;
58928;SDS011;44713;53.378;10.022;2023-07-13T04:16:13;6.78;;;4.90;;
58928;SDS011;44713;53.378;10.022;2023-07-13T04:18:39;6.10;;;5.05;;
58928;SDS011;44713;53.378;10.022;2023-07-13T04:21:06;6.38;;;4.85;;
58928;SDS011;44713;53.378;10.022;2023-07-13T04:23:31;6.53;;;5.20;;
58928;SDS011;44713;53.378;10.022;2023-07-13T04:25:57;8.02;;;5.35;;
58928;SDS011;44713;53.378;10.022;2023-07-13T04:28:23;8.88;;;5.00;;
58928;SDS011;44713;53.378;10.022;2023-07-13T04:30:51;7.43;;;5.60;;
58928;SDS011;44713;53.378;10.022;2023-07-13T04:33:16;5.88;;;5.00;;
58928;SDS011;44713;53.378;10.022;2023-07-13T04:35:42;8.00;;;4.97;;
58928;SDS011;44713;53.378;10.022;2023-07-13T04:38:09;7.82;;;4.88;;
58928;SDS011;44713;53.378;10.022;2023-07-13T04:40:36;7.88;;;4.88;;
58928;SDS011;44713;53.378;10.022;2023-07-13T04:43:01;8.95;;;5.20;;
58928;SDS011;44713;53.378;10.022;2023-07-13T04:45:27;10.18;;;5.43;;
58928;SDS011;44713;53.378;10.022;2023-07-13T04:47:52;8.90;;;5.28;;
58928;SDS011;44713;53.378;10.022;2023-07-13T04:50:18;12.43;;;6.20;;
58928;SDS011;44713;53.378;10.022;2023-07-13T04:52:48;7.78;;;5.45;;
58928;SDS011;44713;53.378;10.022;2023-07-13T04:55:15;8.15;;;5.53;;
58928;SDS011;44713;53.378;10.022;2023-07-13T04:57:41;9.75;;;5.53;;
58928;SDS011;44713;53.378;10.022;2023-07-13T05:00:06;9.98;;;4.68;;
58928;SDS011;44713;53.378;10.022;2023-07-13T05:02:33;11.75;;;6.20;;
58928;SDS011;44713;53.378;10.022;2023-07-13T05:04:59;5.53;;;4.90;;
58928;SDS011;44713;53.378;10.022;2023-07-13T05:07:25;8.68;;;5.80;;
58928;SDS011;44713;53.378;10.022;2023-07-13T05:09:51;11.73;;;5.93;;
58928;SDS011;44713;53.378;10.022;2023-07-13T05:12:16;7.45;;;5.50;;
58928;SDS011;44713;53.378;10.022;2023-07-13T05:14:42;12.00;;;6.07;;
58928;SDS011;44713;53.378;10.022;2023-07-13T05:17:08;8.75;;;5.20;;
58928;SDS011;44713;53.378;10.022;2023-07-13T05:19:33;9.50;;;5.30;;
58928;SDS011;44713;53.378;10.022;2023-07-13T05:21:59;12.75;;;4.70;;
58928;SDS011;44713;53.378;10.022;2023-07-13T05:24:24;16.02;;;4.55;;
58928;SDS011;44713;53.378;10.022;2023-07-13T05:26:50;8.85;;;4.45;;
58928;SDS011;44713;53.378;10.022;2023-07-13T05:29:15;13.23;;;5.00;;
58928;SDS011;44713;53.378;10.022;2023-07-13T05:31:41;14.85;;;4.60;;
58928;SDS011;44713;53.378;10.022;2023-07-13T05:34:06;8.82;;;3.90;;
58928;SDS011;44713;53.378;10.022;2023-07-13T05:36:31;11.23;;;4.03;;
58928;SDS011;44713;53.378;10.022;2023-07-13T05:38:57;7.95;;;4.03;;
58928;SDS011;44713;53.378;10.022;2023-07-13T05:41:22;13.98;;;4.45;;
58928;SDS011;44713;53.378;10.022;2023-07-13T05:43:48;12.45;;;4.20;;
58928;SDS011;44713;53.378;10.022;2023-07-13T05:46:14;15.82;;;4.32;;
58928;SDS011;44713;53.378;10.022;2023-07-13T05:48:42;12.32;;;4.28;;
58928;SDS011;44713;53.378;10.022;2023-07-13T05:51:07;17.45;;;3.85;;
58928;SDS011;44713;53.378;10.022;2023-07-13T05:53:33;14.77;;;4.43;;
58928;SDS011;44713;53.378;10.022;2023-07-13T05:55:59;14.65;;;4.15;;
58928;SDS011;44713;53.378;10.022;2023-07-13T05:58:25;14.88;;;4.55;;
58928;SDS011;44713;53.378;10.022;2023-07-13T06:00:57;12.77;;;3.95;;
58928;SDS011;44713;53.378;10.022;2023-07-13T06:03:31;11.35;;;4.35;;
58928;SDS011;44713;53.378;10.022;2023-07-13T06:05:57;13.18;;;4.28;;
58928;SDS011;44713;53.378;10.022;2023-07-13T06:08:25;21.38;;;5.28;;
58928;SDS011;44713;53.378;10.022;2023-07-13T06:10:50;16.05;;;3.88;;
58928;SDS011;44713;53.378;10.022;2023-07-13T06:13:16;11.95;;;3.78;;
58928;SDS011;44713;53.378;10.022;2023-07-13T06:15:41;13.93;;;3.60;;
58928;SDS011;44713;53.378;10.022;2023-07-13T06:18:06;13.00;;;3.80;;
58928;SDS011;44713;53.378;10.022;2023-07-13T06:20:33;8.50;;;3.00;;
58928;SDS011;44713;53.378;10.022;2023-07-13T06:23:00;13.45;;;3.47;;
58928;SDS011;44713;53.378;10.022;2023-07-13T06:25:26;12.70;;;3.97;;
58928;SDS011;44713;53.378;10.022;2023-07-13T06:27:55;16.42;;;3.50;;
58928;SDS011;44713;53.378;10.022;2023-07-13T06:30:20;7.53;;;2.78;;
58928;SDS011;44713;53.378;10.022;2023-07-13T06:32:45;15.05;;;3.40;;
58928;SDS011;44713;53.378;10.022;2023-07-13T06:35:11;16.65;;;3.92;;
58928;SDS011;44713;53.378;10.022;2023-07-13T06:37:38;11.57;;;3.10;;
58928;SDS011;44713;53.378;10.022;2023-07-13T06:40:03;16.30;;;3.40;;
58928;SDS011;44713;53.378;10.022;2023-07-13T06:42:29;13.45;;;3.47;;
58928;SDS011;44713;53.378;10.022;2023-07-13T06:44:55;13.88;;;3.65;;
58928;SDS011;44713;53.378;10.022;2023-07-13T06:47:20;14.63;;;3.50;;
58928;SDS011;44713;53.378;10.022;2023-07-13T06:49:45;11.20;;;3.03;;
58928;SDS011;44713;53.378;10.022;2023-07-13T06:52:11;17.67;;;3.65;;
58928;SDS011;44713;53.378;10.022;2023-07-13T06:54:36;11.93;;;3.05;;
58928;SDS011;44713;53.378;10.022;2023-07-13T06:57:01;14.07;;;3.15;;
58928;SDS011;44713;53.378;10.022;2023-07-13T06:59:27;13.77;;;3.78;;
58928;SDS011;44713;53.378;10.022;2023-07-13T07:01:52;13.80;;;3.17;;
58928;SDS011;44713;53.378;10.022;2023-07-13T07:04:17;15.68;;;3.33;;
58928;SDS011;44713;53.378;10.022;2023-07-13T07:06:43;11.60;;;3.38;;
58928;SDS011;44713;53.378;10.022;2023-07-13T07:09:08;12.48;;;3.55;;
58928;SDS011;44713;53.378;10.022;2023-07-13T07:11:34;15.45;;;3.03;;
58928;SDS011;44713;53.378;10.022;2023-07-13T07:13:59;16.83;;;3.58;;
58928;SDS011;44713;53.378;10.022;2023-07-13T07:16:24;17.30;;;3.55;;
58928;SDS011;44713;53.378;10.022;2023-07-13T07:18:50;11.55;;;3.25;;
58928;SDS011;44713;53.378;10.022;2023-07-13T07:21:15;13.15;;;3.28;;
58928;SDS011;44713;53.378;10.022;2023-07-13T07:26:07;21.52;;;3.35;;
58928;SDS011;44713;53.378;10.022;2023-07-13T07:28:34;13.23;;;3.22;;
58928;SDS011;44713;53.378;10.022;2023-07-13T07:31:00;14.57;;;2.97;;
58928;SDS011;44713;53.378;10.022;2023-07-13T07:33:25;16.42;;;3.00;;
58928;SDS011;44713;53.378;10.022;2023-07-13T07:35:51;12.73;;;3.00;;
58928;SDS011;44713;53.378;10.022;2023-07-13T07:38:17;11.75;;;2.88;;
58928;SDS011;44713;53.378;10.022;2023-07-13T07:40:43;18.15;;;3.08;;
58928;SDS011;44713;53.378;10.022;2023-07-13T07:43:09;12.73;;;2.83;;
58928;SDS011;44713;53.378;10.022;2023-07-13T07:45:36;12.82;;;2.95;;
58928;SDS011;44713;53.378;10.022;2023-07-13T07:48:03;10.13;;;2.78;;
58928;SDS011;44713;53.378;10.022;2023-07-13T07:50:29;10.15;;;2.95;;
58928;SDS011;44713;53.378;10.022;2023-07-13T07:52:55;18.95;;;3.65;;
58928;SDS011;44713;53.378;10.022;2023-07-13T07:55:21;9.18;;;3.20;;
58928;SDS011;44713;53.378;10.022;2023-07-13T07:57:47;9.40;;;2.75;;
58928;SDS011;44713;53.378;10.022;2023-07-13T08:00:13;12.43;;;2.95;;
58928;SDS011;44713;53.378;10.022;2023-07-13T08:02:40;15.07;;;3.38;;
58928;SDS011;44713;53.378;10.022;2023-07-13T08:05:06;10.57;;;2.63;;
58928;SDS011;44713;53.378;10.022;2023-07-13T08:07:32;13.57;;;2.60;;
58928;SDS011;44713;53.378;10.022;2023-07-13T08:09:57;10.57;;;2.55;;
58928;SDS011;44713;53.378;10.022;2023-07-13T08:12:23;15.20;;;2.97;;
58928;SDS011;44713;53.378;10.022;2023-07-13T08:14:51;9.02;;;2.63;;
58928;SDS011;44713;53.378;10.022;2023-07-13T08:17:19;11.05;;;2.70;;
58928;SDS011;44713;53.378;10.022;2023-07-13T08:19:45;7.72;;;2.28;;
58928;SDS011;44713;53.378;10.022;2023-07-13T08:22:10;11.98;;;2.58;;
58928;SDS011;44713;53.378;10.022;2023-07-13T08:24:36;9.40;;;2.60;;
58928;SDS011;44713;53.378;10.022;2023-07-13T08:27:01;11.98;;;2.65;;
58928;SDS011;44713;53.378;10.022;2023-07-13T08:29:27;14.10;;;3.60;;
58928;SDS011;44713;53.378;10.022;2023-07-13T08:31:52;8.13;;;2.25;;
58928;SDS011;44713;53.378;10.022;2023-07-13T08:34:17;9.82;;;2.20;;
58928;SDS011;44713;53.378;10.022;2023-07-13T08:36:43;7.63;;;2.10;;
58928;SDS011;44713;53.378;10.022;2023-07-13T08:39:08;8.98;;;1.95;;
58928;SDS011;44713;53.378;10.022;2023-07-13T08:41:33;7.28;;;2.28;;
58928;SDS011;44713;53.378;10.022;2023-07-13T08:44:00;11.55;;;2.40;;
58928;SDS011;44713;53.378;10.022;2023-07-13T08:48:53;8.95;;;2.13;;
58928;SDS011;44713;53.378;10.022;2023-07-13T08:54:29;9.63;;;2.60;;
58928;SDS011;44713;53.378;10.022;2023-07-13T08:56:59;7.38;;;1.95;;
58928;SDS011;44713;53.378;10.022;2023-07-13T08:59:33;8.13;;;2.05;;
58928;SDS011;44713;53.378;10.022;2023-07-13T09:02:08;15.60;;;2.25;;
58928;SDS011;44713;53.378;10.022;2023-07-13T09:05:04;6.00;;;1.90;;
58928;SDS011;44713;53.378;10.022;2023-07-13T09:10:59;9.75;;;2.15;;
58928;SDS011;44713;53.378;10.022;2023-07-13T09:13:43;5.88;;;2.20;;
58928;SDS011;44713;53.378;10.022;2023-07-13T09:16:17;13.20;;;2.38;;
58928;SDS011;44713;53.378;10.022;2023-07-13T09:18:53;7.05;;;1.77;;
58928;SDS011;44713;53.378;10.022;2023-07-13T09:21:25;9.20;;;2.20;;
58928;SDS011;44713;53.378;10.022;2023-07-13T09:23:56;13.77;;;2.38;;
58928;SDS011;44713;53.378;10.022;2023-07-13T09:26:26;11.02;;;2.40;;
58928;SDS011;44713;53.378;10.022;2023-07-13T09:28:57;12.02;;;2.22;;
58928;SDS011;44713;53.378;10.022;2023-07-13T09:31:36;7.60;;;2.38;;
58928;SDS011;44713;53.378;10.022;2023-07-13T09:34:09;5.97;;;1.98;;
58928;SDS011;44713;53.378;10.022;2023-07-13T09:36:36;6.18;;;2.25;;
58928;SDS011;44713;53.378;10.022;2023-07-13T09:41:37;8.25;;;2.05;;
58928;SDS011;44713;53.378;10.022;2023-07-13T09:44:11;8.23;;;2.25;;
58928;SDS011;44713;53.378;10.022;2023-07-13T09:46:45;4.32;;;1.60;;
58928;SDS011;44713;53.378;10.022;2023-07-13T09:49:17;9.20;;;2.67;;
58928;SDS011;44713;53.378;10.022;2023-07-13T09:51:43;6.95;;;2.80;;
58928;SDS011;44713;53.378;10.022;2023-07-13T09:54:17;6.03;;;1.80;;
58928;SDS011;44713;53.378;10.022;2023-07-13T09:56:44;5.00;;;1.83;;
58928;SDS011;44713;53.378;10.022;2023-07-13T09:59:23;6.43;;;2.03;;
58928;SDS011;44713;53.378;10.022;2023-07-13T10:01:54;5.63;;;2.13;;
58928;SDS011;44713;53.378;10.022;2023-07-13T10:04:26;6.00;;;2.10;;
58928;SDS011;44713;53.378;10.022;2023-07-13T10:07:04;5.38;;;2.10;;
58928;SDS011;44713;53.378;10.022;2023-07-13T10:09:33;6.05;;;2.10;;
58928;SDS011;44713;53.378;10.022;2023-07-13T10:11:59;7.72;;;1.80;;
58928;SDS011;44713;53.378;10.022;2023-07-13T10:14:24;9.65;;;2.22;;
58928;SDS011;44713;53.378;10.022;2023-07-13T10:16:52;8.02;;;2.53;;
58928;SDS011;44713;53.378;10.022;2023-07-13T10:19:25;6.33;;;1.83;;
58928;SDS011;44713;53.378;10.022;2023-07-13T10:21:57;7.10;;;2.25;;
58928;SDS011;44713;53.378;10.022;2023-07-13T10:24:32;8.00;;;2.22;;
58928;SDS011;44713;53.378;10.022;2023-07-13T10:27:01;6.35;;;2.40;;
58928;SDS011;44713;53.378;10.022;2023-07-13T10:29:42;5.32;;;2.03;;
58928;SDS011;44713;53.378;10.022;2023-07-13T10:32:11;6.60;;;2.20;;
58928;SDS011;44713;53.378;10.022;2023-07-13T10:34:38;6.47;;;2.40;;
58928;SDS011;44713;53.378;10.022;2023-07-13T10:37:05;4.60;;;2.20;;
58928;SDS011;44713;53.378;10.022;2023-07-13T10:39:41;6.60;;;2.25;;
58928;SDS011;44713;53.378;10.022;2023-07-13T10:42:08;6.18;;;2.30;;
58928;SDS011;44713;53.378;10.022;2023-07-13T10:44:37;6.38;;;2.33;;
58928;SDS011;44713;53.378;10.022;2023-07-13T10:47:07;5.93;;;2.05;;
58928;SDS011;44713;53.378;10.022;2023-07-13T10:49:38;7.40;;;2.97;;
58928;SDS011;44713;53.378;10.022;2023-07-13T10:52:06;12.23;;;2.30;;
58928;SDS011;44713;53.378;10.022;2023-07-13T10:54:51;6.32;;;2.15;;
58928;SDS011;44713;53.378;10.022;2023-07-13T10:57:17;5.68;;;1.92;;
58928;SDS011;44713;53.378;10.022;2023-07-13T10:59:49;3.65;;;1.77;;
58928;SDS011;44713;53.378;10.022;2023-07-13T11:02:27;4.07;;;1.80;;
58928;SDS011;44713;53.378;10.022;2023-07-13T11:04:54;6.30;;;2.28;;
58928;SDS011;44713;53.378;10.022;2023-07-13T11:07:23;7.25;;;2.05;;
58928;SDS011;44713;53.378;10.022;2023-07-13T11:09:54;5.75;;;1.80;;
58928;SDS011;44713;53.378;10.022;2023-07-13T11:27:46;3.75;;;1.50;;
58928;SDS011;44713;53.378;10.022;2023-07-13T11:35:42;3.85;;;1.65;;
58928;SDS011;44713;53.378;10.022;2023-07-13T11:38:15;4.57;;;1.42;;
58928;SDS011;44713;53.378;10.022;2023-07-13T11:40:44;2.38;;;1.30;;
58928;SDS011;44713;53.378;10.022;2023-07-13T11:43:12;3.10;;;1.23;;
58928;SDS011;44713;53.378;10.022;2023-07-13T11:45:40;3.97;;;1.42;;
58928;SDS011;44713;53.378;10.022;2023-07-13T11:48:16;4.53;;;1.85;;
58928;SDS011;44713;53.378;10.022;2023-07-13T11:51:00;4.32;;;1.35;;
58928;SDS011;44713;53.378;10.022;2023-07-13T11:53:35;4.78;;;1.67;;
58928;SDS011;44713;53.378;10.022;2023-07-13T11:56:05;3.92;;;1.50;;
58928;SDS011;44713;53.378;10.022;2023-07-13T11:58:30;5.18;;;1.60;;
58928;SDS011;44713;53.378;10.022;2023-07-13T12:00:57;5.82;;;1.73;;
58928;SDS011;44713;53.378;10.022;2023-07-13T12:03:26;6.13;;;1.88;;
58928;SDS011;44713;53.378;10.022;2023-07-13T12:05:55;3.28;;;1.50;;
58928;SDS011;44713;53.378;10.022;2023-07-13T12:08:22;5.72;;;1.75;;
58928;SDS011;44713;53.378;10.022;2023-07-13T12:10:47;6.00;;;1.63;;
58928;SDS011;44713;53.378;10.022;2023-07-13T12:13:13;4.55;;;1.40;;
58928;SDS011;44713;53.378;10.022;2023-07-13T12:15:39;3.97;;;1.58;;
58928;SDS011;44713;53.378;10.022;2023-07-13T12:18:14;3.97;;;1.73;;
58928;SDS011;44713;53.378;10.022;2023-07-13T12:20:43;5.97;;;1.63;;
58928;SDS011;44713;53.378;10.022;2023-07-13T12:26:00;5.60;;;2.28;;
58928;SDS011;44713;53.378;10.022;2023-07-13T12:28:48;10.15;;;2.45;;
58928;SDS011;44713;53.378;10.022;2023-07-13T12:36:37;4.28;;;1.58;;
58928;SDS011;44713;53.378;10.022;2023-07-13T12:39:12;4.40;;;1.85;;
58928;SDS011;44713;53.378;10.022;2023-07-13T12:41:40;5.00;;;1.92;;
58928;SDS011;44713;53.378;10.022;2023-07-13T12:44:09;7.88;;;2.42;;
58928;SDS011;44713;53.378;10.022;2023-07-13T12:46:37;5.00;;;2.17;;
58928;SDS011;44713;53.378;10.022;2023-07-13T12:49:04;9.63;;;2.63;;
58928;SDS011;44713;53.378;10.022;2023-07-13T12:51:32;7.10;;;2.88;;
58928;SDS011;44713;53.378;10.022;2023-07-13T12:54:05;6.10;;;2.85;;
58928;SDS011;44713;53.378;10.022;2023-07-13T12:56:37;7.55;;;2.75;;
58928;SDS011;44713;53.378;10.022;2023-07-13T12:59:03;10.00;;;2.78;;
58928;SDS011;44713;53.378;10.022;2023-07-13T13:01:30;5.90;;;2.67;;
58928;SDS011;44713;53.378;10.022;2023-07-13T13:04:00;6.20;;;2.40;;
58928;SDS011;44713;53.378;10.022;2023-07-13T13:06:31;7.40;;;3.20;;
58928;SDS011;44713;53.378;10.022;2023-07-13T13:08:58;3.15;;;2.03;;
58928;SDS011;44713;53.378;10.022;2023-07-13T13:11:24;6.90;;;2.75;;
58928;SDS011;44713;53.378;10.022;2023-07-13T13:13:51;4.55;;;2.65;;
58928;SDS011;44713;53.378;10.022;2023-07-13T13:16:50;4.95;;;2.17;;
58928;SDS011;44713;53.378;10.022;2023-07-13T13:19:15;4.47;;;2.10;;
58928;SDS011;44713;53.378;10.022;2023-07-13T13:21:53;5.50;;;1.77;;
58928;SDS011;44713;53.378;10.022;2023-07-13T13:24:21;5.45;;;1.88;;
58928;SDS011;44713;53.378;10.022;2023-07-13T13:26:50;2.30;;;1.90;;
58928;SDS011;44713;53.378;10.022;2023-07-13T13:29:17;3.78;;;1.70;;
58928;SDS011;44713;53.378;10.022;2023-07-13T13:31:44;2.80;;;1.40;;
58928;SDS011;44713;53.378;10.022;2023-07-13T13:34:10;3.13;;;1.45;;
58928;SDS011;44713;53.378;10.022;2023-07-13T13:36:37;6.95;;;1.48;;
58928;SDS011;44713;53.378;10.022;2023-07-13T13:39:05;4.95;;;1.58;;
58928;SDS011;44713;53.378;10.022;2023-07-13T13:41:40;5.43;;;1.80;;
58928;SDS011;44713;53.378;10.022;2023-07-13T13:44:08;2.35;;;1.88;;
58928;SDS011;44713;53.378;10.022;2023-07-13T13:46:34;3.97;;;1.60;;
58928;SDS011;44713;53.378;10.022;2023-07-13T13:49:00;4.82;;;1.70;;
58928;SDS011;44713;53.378;10.022;2023-07-13T13:51:26;3.47;;;2.13;;
58928;SDS011;44713;53.378;10.022;2023-07-13T13:53:51;3.20;;;1.50;;
58928;SDS011;44713;53.378;10.022;2023-07-13T13:56:18;3.13;;;1.63;;
58928;SDS011;44713;53.378;10.022;2023-07-13T13:58:44;3.30;;;1.70;;
58928;SDS011;44713;53.378;10.022;2023-07-13T14:01:18;3.70;;;1.70;;
58928;SDS011;44713;53.378;10.022;2023-07-13T14:03:45;3.08;;;1.30;;
58928;SDS011;44713;53.378;10.022;2023-07-13T14:06:14;4.03;;;1.75;;
58928;SDS011;44713;53.378;10.022;2023-07-13T14:08:41;1.98;;;1.20;;
58928;SDS011;44713;53.378;10.022;2023-07-13T14:11:09;3.05;;;1.42;;
58928;SDS011;44713;53.378;10.022;2023-07-13T14:13:39;1.70;;;1.40;;
58928;SDS011;44713;53.378;10.022;2023-07-13T14:16:15;4.55;;;1.73;;
58928;SDS011;44713;53.378;10.022;2023-07-13T14:18:45;4.47;;;1.58;;
58928;SDS011;44713;53.378;10.022;2023-07-13T14:21:15;3.05;;;1.30;;
58928;SDS011;44713;53.378;10.022;2023-07-13T14:23:45;3.63;;;1.67;;
58928;SDS011;44713;53.378;10.022;2023-07-13T14:26:13;2.75;;;1.80;;
58928;SDS011;44713;53.378;10.022;2023-07-13T14:28:44;4.03;;;2.03;;
58928;SDS011;44713;53.378;10.022;2023-07-13T14:31:12;2.95;;;1.55;;
58928;SDS011;44713;53.378;10.022;2023-07-13T14:33:39;4.15;;;2.50;;
58928;SDS011;44713;53.378;10.022;2023-07-13T14:36:15;2.85;;;1.65;;
58928;SDS011;44713;53.378;10.022;2023-07-13T14:38:53;4.35;;;1.92;;
58928;SDS011;44713;53.378;10.022;2023-07-13T14:41:18;5.88;;;2.47;;
58928;SDS011;44713;53.378;10.022;2023-07-13T14:43:44;4.93;;;2.40;;
58928;SDS011;44713;53.378;10.022;2023-07-13T14:46:43;3.70;;;2.28;;
58928;SDS011;44713;53.378;10.022;2023-07-13T14:49:05;4.82;;;2.80;;
58928;SDS011;44713;53.378;10.022;2023-07-13T14:51:37;5.05;;;3.00;;
58928;SDS011;44713;53.378;10.022;2023-07-13T14:54:03;4.25;;;2.20;;
58928;SDS011;44713;53.378;10.022;2023-07-13T14:56:29;6.35;;;2.20;;
58928;SDS011;44713;53.378;10.022;2023-07-13T14:58:55;5.75;;;3.00;;
58928;SDS011;44713;53.378;10.022;2023-07-13T15:01:20;4.13;;;2.55;;
58928;SDS011;44713;53.378;10.022;2023-07-13T15:03:48;3.88;;;2.42;;
58928;SDS011;44713;53.378;10.022;2023-07-13T15:06:16;3.60;;;2.13;;
58928;SDS011;44713;53.378;10.022;2023-07-13T15:08:42;4.85;;;2.55;;
58928;SDS011;44713;53.378;10.022;2023-07-13T15:11:08;4.40;;;2.00;;
58928;SDS011;44713;53.378;10.022;2023-07-13T15:13:36;6.70;;;2.22;;
58928;SDS011;44713;53.378;10.022;2023-07-13T15:16:03;3.72;;;1.75;;
58928;SDS011;44713;53.378;10.022;2023-07-13T15:18:30;2.10;;;1.65;;
58928;SDS011;44713;53.378;10.022;2023-07-13T15:20:55;4.95;;;2.00;;
58928;SDS011;44713;53.378;10.022;2023-07-13T15:23:22;3.25;;;2.00;;